Time;durP1;ratioP1;P1;durP2;ratioP2;P2;SDS_P1;SDS_P2;PMS_P1;PMS_P2;Temp;Humidity;BMP_temperature;BMP_pressure;BME280_temperature;BME280_humidity;BME280_pressure;Samples;Min_cycle;Max_cycle;Signal;HPM_P1;HPM_P2
2021/03/30 00:01:43;;;;;;;3.25;1.70;;;17.80;56.80;;;;;;10469340;28;20457;-62
2021/03/30 00:06:44;;;;;;;2.80;1.80;;;17.80;56.80;;;;;;10469149;28;20032;-62
2021/03/30 00:11:44;;;;;;;2.83;1.60;;;17.80;56.80;;;;;;10471798;28;20052;-62
2021/03/30 00:16:45;;;;;;;2.88;1.58;;;17.80;56.80;;;;;;10493121;28;20111;-62
2021/03/30 00:21:46;;;;;;;3.78;1.67;;;17.80;56.90;;;;;;10461990;28;20102;-61
2021/03/30 00:26:46;;;;;;;2.92;1.92;;;17.80;56.90;;;;;;10456243;28;20039;-62
2021/03/30 00:31:48;;;;;;;3.58;1.55;;;17.80;56.80;;;;;;10476796;28;20075;-62
2021/03/30 00:36:48;;;;;;;3.67;1.90;;;17.80;56.70;;;;;;10497235;28;20075;-62
2021/03/30 00:41:49;;;;;;;4.00;1.85;;;17.90;56.60;;;;;;10462682;28;20493;-62
2021/03/30 00:46:51;;;;;;;2.47;1.88;;;17.90;56.50;;;;;;10455038;28;20057;-62
2021/03/30 00:51:52;;;;;;;3.70;2.05;;;17.90;56.50;;;;;;10484957;28;20439;-62
2021/03/30 00:56:54;;;;;;;3.38;1.83;;;17.90;56.50;;;;;;10504168;28;20028;-62
2021/03/30 01:01:55;;;;;;;3.00;1.90;;;17.90;56.50;;;;;;10469372;28;20036;-62
2021/03/30 01:06:56;;;;;;;2.95;1.75;;;17.90;56.40;;;;;;10465721;28;20029;-62
2021/03/30 01:12:53;;;;;;;4.88;1.88;;;17.80;56.40;;;;;;10478725;28;20108;-61
2021/03/30 01:18:07;;;;;;;2.55;1.35;;;17.90;56.30;;;;;;10501384;28;20110;-61
2021/03/30 01:23:47;;;;;;;3.78;2.00;;;17.90;56.40;;;;;;10462043;28;20371;-62
2021/03/30 01:29:00;;;;;;;5.28;1.90;;;17.80;56.40;;;;;;10464371;28;20049;-62
2021/03/30 01:34:02;;;;;;;3.53;1.88;;;17.80;56.40;;;;;;10490681;28;20032;-61
2021/03/30 01:39:05;;;;;;;1.92;1.48;;;17.80;56.40;;;;;;10483502;28;20127;-62
2021/03/30 01:44:09;;;;;;;2.65;1.70;;;17.80;56.50;;;;;;10460026;28;20037;-62
2021/03/30 01:49:12;;;;;;;2.25;1.35;;;17.80;56.60;;;;;;10459614;28;20382;-61
2021/03/30 01:54:15;;;;;;;5.30;1.95;;;17.80;56.60;;;;;;10460694;28;20037;-62
2021/03/30 01:59:18;;;;;;;3.35;1.77;;;17.80;56.70;;;;;;10473165;28;20113;-62
2021/03/30 02:04:21;;;;;;;3.35;1.85;;;17.80;56.70;;;;;;10469048;28;20436;-61
2021/03/30 02:09:29;;;;;;;3.50;2.15;;;17.80;56.70;;;;;;10462106;28;20063;-61
2021/03/30 02:14:30;;;;;;;2.38;1.30;;;17.80;56.40;;;;;;10480236;28;20031;-62
2021/03/30 02:19:40;;;;;;;2.42;1.63;;;17.80;56.40;;;;;;10458235;28;20033;-62
2021/03/30 02:24:42;;;;;;;4.40;1.80;;;17.80;56.30;;;;;;10458099;28;20045;-62
2021/03/30 02:29:44;;;;;;;2.58;1.45;;;17.80;56.30;;;;;;10494460;28;20040;-62
2021/03/30 02:34:48;;;;;;;4.93;1.90;;;17.80;56.20;;;;;;10491871;28;20265;-62
2021/03/30 02:39:50;;;;;;;3.03;1.90;;;17.80;56.10;;;;;;10478370;28;20032;-62
2021/03/30 02:44:52;;;;;;;4.10;1.92;;;17.80;56.10;;;;;;10471342;28;20104;-62
2021/03/30 02:49:54;;;;;;;2.20;1.77;;;17.80;56.00;;;;;;10498824;28;20124;-62
2021/03/30 02:54:55;;;;;;;3.00;1.98;;;17.80;56.00;;;;;;10498110;28;20117;-62
2021/03/30 02:59:56;;;;;;;3.20;1.60;;;17.90;56.00;;;;;;10470672;28;20025;-62
2021/03/30 03:04:57;;;;;;;2.45;1.48;;;17.80;55.90;;;;;;10478738;28;20107;-62
2021/03/30 03:10:03;;;;;;;3.88;2.15;;;17.80;55.80;;;;;;10462826;28;20032;-62
2021/03/30 03:15:07;;;;;;;3.45;2.10;;;17.80;55.80;;;;;;10466267;28;20024;-61
2021/03/30 03:20:10;;;;;;;2.90;1.90;;;17.80;55.80;;;;;;10482096;28;20036;-61
2021/03/30 03:25:14;;;;;;;2.70;1.73;;;17.80;55.90;;;;;;10456910;28;20081;-61
2021/03/30 03:30:17;;;;;;;3.15;2.03;;;17.80;56.10;;;;;;10456086;28;20033;-62
2021/03/30 03:35:18;;;;;;;1.70;1.23;;;17.70;56.00;;;;;;10456629;28;20033;-61
2021/03/30 03:40:18;;;;;;;2.35;1.58;;;17.80;55.80;;;;;;10456792;28;20036;-61
2021/03/30 03:45:19;;;;;;;3.00;2.00;;;17.80;55.80;;;;;;10463754;28;20039;-62
2021/03/30 03:50:20;;;;;;;3.22;2.10;;;17.80;55.80;;;;;;10497864;28;20037;-62
2021/03/30 03:55:22;;;;;;;2.83;1.77;;;17.80;55.80;;;;;;10497489;28;20546;-62
2021/03/30 04:00:24;;;;;;;3.72;2.15;;;17.80;55.80;;;;;;10470373;28;20021;-62
2021/03/30 04:05:57;;;;;;;2.38;1.92;;;17.80;55.80;;;;;;10454673;28;20036;-61
2021/03/30 04:11:04;;;;;;;3.45;2.15;;;17.80;55.80;;;;;;10474574;28;20091;-61
2021/03/30 04:16:06;;;;;;;3.30;2.25;;;17.80;55.80;;;;;;10473800;28;20111;-61
2021/03/30 04:21:19;;;;;;;2.63;1.80;;;17.80;55.80;;;;;;10455711;28;20083;-62
2021/03/30 04:26:20;;;;;;;3.20;1.85;;;17.80;55.80;;;;;;10454794;28;20067;-61
2021/03/30 04:31:21;;;;;;;2.97;1.67;;;17.80;55.80;;;;;;10487252;28;20485;-61
2021/03/30 04:36:22;;;;;;;3.33;2.08;;;17.80;55.80;;;;;;10505843;28;20032;-61
2021/03/30 04:41:22;;;;;;;3.00;2.03;;;17.80;55.80;;;;;;10505374;28;20115;-62
2021/03/30 04:46:23;;;;;;;3.45;2.15;;;17.80;55.80;;;;;;10473297;28;20879;-61
2021/03/30 04:51:24;;;;;;;2.90;1.92;;;17.80;55.60;;;;;;10463298;28;20036;-62
2021/03/30 04:56:24;;;;;;;4.10;1.77;;;17.80;55.60;;;;;;10462916;28;20067;-62
2021/03/30 05:01:25;;;;;;;3.22;1.88;;;17.80;55.60;;;;;;10477869;28;20076;-62
2021/03/30 05:06:26;;;;;;;4.55;2.03;;;17.80;55.60;;;;;;10464878;28;20074;-62
2021/03/30 05:11:26;;;;;;;4.68;2.75;;;17.80;55.60;;;;;;10465173;28;20083;-61
2021/03/30 05:16:27;;;;;;;3.15;1.95;;;17.80;55.80;;;;;;10460080;28;20082;-64
2021/03/30 05:21:28;;;;;;;7.65;2.33;;;17.80;55.90;;;;;;10461480;28;20041;-62
2021/03/30 05:26:28;;;;;;;8.32;2.13;;;17.80;56.40;;;;;;10461169;28;20049;-60
2021/03/30 05:31:29;;;;;;;6.38;2.42;;;17.80;56.50;;;;;;10491804;28;20033;-62
2021/03/30 05:36:30;;;;;;;7.07;3.10;;;17.80;57.70;;;;;;10481945;28;20541;-59
2021/03/30 05:41:32;;;;;;;7.78;2.80;;;17.80;57.70;;;;;;10482047;28;20048;-60
2021/03/30 05:46:32;;;;;;;6.82;2.42;;;17.80;57.80;;;;;;10462866;28;20040;-62
2021/03/30 05:51:38;;;;;;;7.65;3.05;;;17.80;57.70;;;;;;10462948;28;20131;-60
2021/03/30 05:56:40;;;;;;;6.20;2.53;;;17.80;58.10;;;;;;10460613;28;20025;-61
2021/03/30 06:01:42;;;;;;;13.32;3.50;;;17.80;57.70;;;;;;10465405;28;20032;-62
2021/03/30 06:06:42;;;;;;;5.28;3.22;;;17.80;57.60;;;;;;10491649;28;20037;-61
2021/03/30 06:11:43;;;;;;;10.20;4.35;;;17.80;57.30;;;;;;10467132;28;20071;-60
2021/03/30 06:16:46;;;;;;;10.50;4.07;;;17.70;57.10;;;;;;10500537;28;20032;-60
2021/03/30 06:21:57;;;;;;;9.00;3.90;;;17.70;57.00;;;;;;10500308;28;20507;-61
2021/03/30 06:27:20;;;;;;;6.47;2.83;;;17.70;56.90;;;;;;10481676;28;20063;-62
2021/03/30 06:32:26;;;;;;;7.82;3.55;;;17.70;57.00;;;;;;10455551;28;20178;-63
2021/03/30 06:37:39;;;;;;;7.95;3.25;;;17.70;56.50;;;;;;10458785;28;20423;-63
2021/03/30 06:42:45;;;;;;;7.55;3.50;;;17.70;56.40;;;;;;10454616;28;20083;-63
2021/03/30 06:47:54;;;;;;;6.63;3.42;;;17.70;56.20;;;;;;10450514;28;20037;-63
2021/03/30 06:53:08;;;;;;;7.73;3.53;;;17.70;56.20;;;;;;10455370;28;20024;-63
2021/03/30 06:58:08;;;;;;;6.68;3.78;;;17.70;56.10;;;;;;10475395;28;20444;-63
2021/03/30 07:03:13;;;;;;;5.53;3.05;;;17.70;56.10;;;;;;10464751;28;20028;-64
2021/03/30 07:08:16;;;;;;;7.05;2.92;;;17.70;56.10;;;;;;10459506;28;20377;-64
2021/03/30 07:13:20;;;;;;;7.47;3.63;;;17.70;56.90;;;;;;10457501;28;20028;-63
2021/03/30 07:18:30;;;;;;;6.70;3.58;;;17.70;56.20;;;;;;10457273;28;20033;-64
2021/03/30 07:23:34;;;;;;;5.57;2.85;;;17.70;56.20;;;;;;10456819;28;20379;-64
2021/03/30 07:28:58;;;;;;;8.10;3.90;;;17.70;56.80;;;;;;10456983;28;20040;-64
2021/03/30 07:34:40;;;;;;;6.30;3.65;;;17.70;56.20;;;;;;10456108;28;20041;-64
2021/03/30 07:39:57;;;;;;;4.78;3.10;;;17.70;56.30;;;;;;10458882;28;20489;-64
2021/03/30 07:44:59;;;;;;;4.45;2.55;;;17.70;56.40;;;;;;10455210;28;20443;-64
2021/03/30 07:50:00;;;;;;;5.68;3.30;;;17.60;56.40;;;;;;10454994;28;20029;-64
2021/03/30 07:55:25;;;;;;;5.57;2.70;;;17.60;56.50;;;;;;10455910;28;20021;-64
2021/03/30 08:00:49;;;;;;;4.38;2.85;;;17.60;56.60;;;;;;10456215;28;20041;-64
2021/03/30 08:06:05;;;;;;;6.60;3.20;;;17.60;56.90;;;;;;10457698;28;20070;-64
2021/03/30 08:11:05;;;;;;;3.88;3.20;;;17.50;57.00;;;;;;10455422;28;20033;-63
2021/03/30 08:16:09;;;;;;;5.85;3.30;;;17.50;57.20;;;;;;10455200;28;20416;-63
2021/03/30 08:21:21;;;;;;;5.63;2.95;;;17.50;57.30;;;;;;10455523;28;20028;-63
2021/03/30 08:26:33;;;;;;;4.65;2.50;;;17.50;57.30;;;;;;10455780;28;20080;-64
2021/03/30 08:31:44;;;;;;;6.22;2.38;;;17.50;57.30;;;;;;10456026;28;20128;-64
2021/03/30 08:36:52;;;;;;;6.43;2.85;;;17.50;57.40;;;;;;10454477;28;20091;-64
2021/03/30 08:42:04;;;;;;;3.58;2.33;;;17.50;57.40;;;;;;10454257;28;20051;-64
2021/03/30 08:47:07;;;;;;;3.58;2.30;;;17.50;57.50;;;;;;10455691;28;20071;-65
2021/03/30 08:52:16;;;;;;;4.82;3.13;;;17.50;57.50;;;;;;10453733;28;20111;-62
2021/03/30 08:57:26;;;;;;;4.57;2.78;;;17.60;57.60;;;;;;10460617;28;20116;-60
2021/03/30 09:02:28;;;;;;;3.05;2.20;;;17.60;57.60;;;;;;10453359;28;20085;-62
2021/03/30 09:07:45;;;;;;;4.38;2.25;;;17.60;57.60;;;;;;10469647;28;20102;-62
2021/03/30 09:12:46;;;;;;;4.95;1.85;;;17.60;57.60;;;;;;10453039;28;20071;-62
2021/03/30 09:17:54;;;;;;;5.47;2.38;;;17.60;57.70;;;;;;10460743;28;20029;-63
2021/03/30 09:22:58;;;;;;;7.40;2.58;;;17.60;57.70;;;;;;10461100;28;20048;-62
2021/03/30 09:28:00;;;;;;;4.38;2.60;;;17.60;57.70;;;;;;10461322;28;20378;-63
2021/03/30 09:33:01;;;;;;;3.28;1.88;;;17.60;57.70;;;;;;10459655;28;20033;-62
2021/03/30 09:38:04;;;;;;;3.35;2.20;;;17.60;57.80;;;;;;10460929;28;20698;-63
2021/03/30 09:43:07;;;;;;;3.60;2.17;;;17.70;57.80;;;;;;10461527;28;20032;-63
2021/03/30 09:48:17;;;;;;;5.35;2.53;;;17.70;57.90;;;;;;10459352;28;20029;-63
2021/03/30 09:53:20;;;;;;;4.20;1.90;;;17.70;57.80;;;;;;10457189;28;20036;-63
2021/03/30 09:58:21;;;;;;;2.85;2.25;;;17.70;57.80;;;;;;10459470;28;20041;-63
2021/03/30 10:03:24;;;;;;;3.33;2.13;;;17.80;57.90;;;;;;10458399;28;20029;-62
2021/03/30 10:08:27;;;;;;;3.00;1.90;;;17.80;57.80;;;;;;10456999;28;20033;-61
2021/03/30 10:13:36;;;;;;;3.70;2.63;;;17.80;57.80;;;;;;10448137;28;20021;-61
2021/03/30 10:18:39;;;;;;;4.03;2.20;;;17.80;57.90;;;;;;10455748;28;20033;-61
2021/03/30 10:23:49;;;;;;;4.45;2.15;;;17.80;58.20;;;;;;10458114;28;20033;-61
2021/03/30 10:29:02;;;;;;;3.97;2.40;;;17.90;58.20;;;;;;10456832;28;20083;-61
2021/03/30 10:34:19;;;;;;;3.55;2.33;;;17.90;58.30;;;;;;10458498;28;20017;-60
2021/03/30 10:39:38;;;;;;;2.70;2.15;;;17.90;58.40;;;;;;10462333;28;20041;-61
2021/03/30 10:44:45;;;;;;;3.95;2.28;;;18.00;58.40;;;;;;10456798;28;20094;-61
2021/03/30 10:49:48;;;;;;;5.38;2.40;;;18.00;58.50;;;;;;10457669;28;20029;-61
2021/03/30 10:54:52;;;;;;;3.67;2.33;;;18.00;58.50;;;;;;10456979;28;20023;-62
2021/03/30 10:59:55;;;;;;;2.65;1.65;;;18.00;58.50;;;;;;10457115;28;20033;-62
2021/03/30 11:04:56;;;;;;;4.28;2.47;;;18.10;58.60;;;;;;10453817;28;20036;-62
2021/03/30 11:09:57;;;;;;;3.50;2.53;;;18.10;58.60;;;;;;10455998;28;20096;-61
2021/03/30 11:14:57;;;;;;;2.97;1.80;;;18.10;58.60;;;;;;10456136;28;20142;-61
2021/03/30 11:19:58;;;;;;;4.80;2.47;;;18.20;58.60;;;;;;10454459;28;20029;-62
2021/03/30 11:25:05;;;;;;;4.78;2.08;;;18.20;58.70;;;;;;10454046;28;20036;-61
2021/03/30 11:35:17;;;;;;;2.75;2.00;;;18.20;58.60;;;;;;10455319;28;20124;-61
2021/03/30 11:40:18;;;;;;;3.80;2.15;;;18.30;58.60;;;;;;10457047;28;20025;-61
2021/03/30 11:45:19;;;;;;;4.30;2.38;;;18.30;58.60;;;;;;10454892;28;20024;-60
2021/03/30 11:50:20;;;;;;;4.40;2.08;;;18.30;58.50;;;;;;10448903;28;20041;-60
2021/03/30 11:55:21;;;;;;;4.35;2.70;;;18.30;58.50;;;;;;10449308;28;20032;-61
2021/03/30 12:00:23;;;;;;;5.82;2.45;;;18.30;58.20;;;;;;10453864;28;20538;-61
2021/03/30 12:05:24;;;;;;;3.28;2.70;;;18.30;58.30;;;;;;10476121;28;20102;-61
2021/03/30 12:10:24;;;;;;;4.72;2.95;;;18.40;58.30;;;;;;10455287;28;20136;-62
2021/03/30 12:15:25;;;;;;;6.25;2.40;;;18.40;58.30;;;;;;10441443;28;20439;-62
2021/03/30 12:20:26;;;;;;;5.78;1.90;;;18.40;58.20;;;;;;10436769;28;20037;-60
2021/03/30 12:25:27;;;;;;;7.45;3.40;;;18.40;58.20;;;;;;10452273;28;20043;-63
2021/03/30 12:30:28;;;;;;;6.43;3.30;;;18.50;58.10;;;;;;10454082;28;20072;-61
2021/03/30 12:35:28;;;;;;;8.98;3.40;;;18.50;58.20;;;;;;10454178;28;20025;-61
2021/03/30 12:40:29;;;;;;;4.05;2.80;;;18.50;58.20;;;;;;10455065;28;20108;-62
2021/03/30 12:45:33;;;;;;;6.95;2.72;;;18.50;58.20;;;;;;10485415;28;20048;-61
2021/03/30 12:50:34;;;;;;;5.15;2.60;;;18.60;58.20;;;;;;10457749;28;20501;-62
2021/03/30 12:55:35;;;;;;;4.70;2.67;;;18.60;58.20;;;;;;10461009;28;20158;-62
2021/03/30 13:00:36;;;;;;;8.07;2.22;;;18.60;58.20;;;;;;10462794;28;20036;-60
2021/03/30 13:05:37;;;;;;;6.32;3.30;;;18.60;58.10;;;;;;10463513;28;20055;-60
2021/03/30 13:10:37;;;;;;;5.07;3.00;;;18.60;58.10;;;;;;10463033;28;20511;-60
2021/03/30 13:15:38;;;;;;;5.95;3.35;;;18.60;58.10;;;;;;10461504;28;20106;-62
2021/03/30 13:20:39;;;;;;;5.80;2.83;;;18.60;58.10;;;;;;10459924;28;20037;-62
2021/03/30 13:25:39;;;;;;;7.05;3.00;;;18.60;58.00;;;;;;10478227;28;20124;-63
2021/03/30 13:30:40;;;;;;;3.95;2.40;;;18.70;58.20;;;;;;10483577;28;20032;-62
2021/03/30 13:35:42;;;;;;;4.88;2.85;;;18.60;58.10;;;;;;10503035;28;20020;-60
2021/03/30 13:40:42;;;;;;;5.35;2.05;;;18.70;58.30;;;;;;10461985;28;20095;-62
2021/03/30 13:45:43;;;;;;;3.28;2.00;;;18.70;58.20;;;;;;10461081;28;20151;-62
2021/03/30 13:50:44;;;;;;;5.90;2.65;;;18.60;58.30;;;;;;10489240;28;20054;-62
2021/03/30 13:55:44;;;;;;;4.35;2.42;;;18.70;59.00;;;;;;10460778;28;20111;-61
2021/03/30 14:00:45;;;;;;;4.43;2.33;;;18.70;58.40;;;;;;10464555;28;20029;-60
2021/03/30 14:05:46;;;;;;;4.03;2.72;;;18.70;58.30;;;;;;10463153;28;20028;-60
2021/03/30 14:10:46;;;;;;;5.68;3.45;;;18.70;58.40;;;;;;10459700;28;20028;-60
2021/03/30 14:15:58;;;;;;;5.70;2.33;;;18.70;58.40;;;;;;10482185;28;20029;-58
2021/03/30 14:21:07;;;;;;;5.75;2.60;;;18.80;58.50;;;;;;10469445;28;20039;-57
2021/03/30 14:26:24;;;;;;;6.43;2.80;;;18.80;58.30;;;;;;10490413;28;20099;-57
2021/03/30 14:31:25;;;;;;;4.35;2.25;;;18.80;58.40;;;;;;10457901;28;20075;-57
2021/03/30 14:36:27;;;;;;;8.52;3.25;;;18.80;59.00;;;;;;10459080;28;20040;-58
2021/03/30 14:41:39;;;;;;;9.10;4.05;;;18.90;58.50;;;;;;10454028;28;20048;-58
2021/03/30 14:52:04;;;;;;;9.25;4.97;;;18.90;56.80;;;;;;10457972;28;20130;-59
2021/03/30 14:57:14;;;;;;;8.13;4.53;;;18.90;56.40;;;;;;10478769;28;20111;-58
2021/03/30 15:07:18;;;;;;;8.00;5.28;;;18.90;56.80;;;;;;10459247;28;20086;-59
2021/03/30 15:12:19;;;;;;;9.48;4.78;;;18.90;57.00;;;;;;10469817;28;20157;-58
2021/03/30 15:17:19;;;;;;;9.90;4.53;;;18.90;57.10;;;;;;10491942;28;20557;-59
2021/03/30 15:22:20;;;;;;;8.13;4.38;;;18.90;57.30;;;;;;10475465;28;20037;-58
2021/03/30 15:27:23;;;;;;;8.32;4.63;;;18.90;57.40;;;;;;10449239;28;20082;-58
2021/03/30 15:32:26;;;;;;;9.65;4.07;;;18.90;57.20;;;;;;10455083;28;20029;-58
2021/03/30 15:37:27;;;;;;;6.28;3.95;;;18.90;57.30;;;;;;10454700;28;20079;-58
2021/03/30 15:42:28;;;;;;;7.05;4.07;;;18.90;57.50;;;;;;10476695;28;20090;-58
2021/03/30 15:47:28;;;;;;;6.65;3.97;;;18.80;57.60;;;;;;10497865;28;20025;-57
2021/03/30 15:52:29;;;;;;;6.85;3.13;;;18.90;57.70;;;;;;10474435;28;20036;-57
2021/03/30 15:57:30;;;;;;;9.57;3.97;;;18.80;57.60;;;;;;10480734;28;20079;-58
2021/03/30 16:02:32;;;;;;;11.25;3.13;;;18.90;57.70;;;;;;10483459;28;20530;-57
2021/03/30 16:07:32;;;;;;;6.60;3.40;;;18.80;57.70;;;;;;10483342;28;20033;-57
2021/03/30 16:12:34;;;;;;;5.78;2.97;;;18.80;57.70;;;;;;10450985;28;20465;-58
2021/03/30 16:17:35;;;;;;;5.85;3.05;;;18.80;57.70;;;;;;10454069;28;20551;-57
2021/03/30 16:22:37;;;;;;;8.35;3.50;;;18.80;57.50;;;;;;10473554;28;20097;-57
2021/03/30 16:27:38;;;;;;;9.45;3.63;;;18.80;57.50;;;;;;10460361;28;20025;-59
2021/03/30 16:32:39;;;;;;;12.43;4.07;;;18.80;57.50;;;;;;10451604;28;20029;-57
2021/03/30 16:37:41;;;;;;;10.82;3.85;;;18.80;57.80;;;;;;10454966;28;20114;-59
2021/03/30 16:42:42;;;;;;;13.02;3.78;;;18.90;59.00;;;;;;10478737;28;20035;-57
2021/03/30 16:47:43;;;;;;;7.30;3.83;;;18.90;59.30;;;;;;10496608;28;20029;-57
2021/03/30 16:52:44;;;;;;;19.02;4.35;;;18.90;59.50;;;;;;10472526;28;20028;-59
2021/03/30 16:57:44;;;;;;;16.13;4.78;;;18.90;58.90;;;;;;10454817;28;20033;-60
2021/03/30 17:02:45;;;;;;;12.57;3.42;;;18.90;59.10;;;;;;10444329;28;20485;-59
2021/03/30 17:07:46;;;;;;;14.70;3.40;;;18.90;58.90;;;;;;10452040;28;20095;-60
2021/03/30 17:12:46;;;;;;;13.13;4.03;;;18.90;58.70;;;;;;10461651;28;20105;-60
2021/03/30 17:17:47;;;;;;;9.30;3.05;;;18.80;58.70;;;;;;10471667;28;20440;-61
2021/03/30 17:22:48;;;;;;;10.07;3.83;;;18.80;58.70;;;;;;10484884;28;20532;-60
2021/03/30 17:27:49;;;;;;;7.32;3.15;;;18.80;59.20;;;;;;10493890;28;20443;-57
2021/03/30 17:32:49;;;;;;;13.02;4.18;;;18.80;58.90;;;;;;10465888;28;20431;-61
2021/03/30 17:37:50;;;;;;;14.60;3.63;;;18.80;59.20;;;;;;10457416;28;20033;-60
2021/03/30 17:42:52;;;;;;;7.97;3.45;;;18.80;60.50;;;;;;10457735;28;20061;-60
2021/03/30 17:47:52;;;;;;;10.38;3.92;;;18.80;60.70;;;;;;10459408;28;20032;-60
2021/03/30 17:52:54;;;;;;;9.82;4.15;;;18.80;60.80;;;;;;10460414;28;20025;-59
2021/03/30 17:57:55;;;;;;;8.73;3.60;;;18.80;60.80;;;;;;10484680;28;20085;-59
2021/03/30 18:02:56;;;;;;;7.47;2.75;;;18.80;60.60;;;;;;10458677;28;20037;-60
2021/03/30 18:07:56;;;;;;;8.02;2.95;;;18.80;59.40;;;;;;10460962;28;20507;-60
2021/03/30 18:12:57;;;;;;;6.07;3.60;;;18.70;59.50;;;;;;10478250;28;20113;-60
2021/03/30 18:18:00;;;;;;;8.43;3.70;;;18.70;59.60;;;;;;10461925;28;20041;-60
2021/03/30 18:23:02;;;;;;;5.07;2.70;;;18.70;59.70;;;;;;10481457;28;20033;-60
2021/03/30 18:28:03;;;;;;;6.20;3.83;;;18.70;59.60;;;;;;10501408;28;20060;-60
2021/03/30 18:33:04;;;;;;;7.45;2.60;;;18.70;59.70;;;;;;10473066;28;20040;-60
2021/03/30 18:38:05;;;;;;;8.63;3.92;;;18.70;59.70;;;;;;10498487;28;20082;-60
2021/03/30 18:43:08;;;;;;;6.80;3.20;;;18.70;59.60;;;;;;10493228;28;20040;-60
2021/03/30 18:48:09;;;;;;;7.07;3.22;;;18.70;59.60;;;;;;10457820;28;20045;-60
2021/03/30 18:53:11;;;;;;;7.05;4.07;;;18.70;59.70;;;;;;10458197;28;20043;-59
2021/03/30 18:58:18;;;;;;;6.10;3.67;;;18.70;60.10;;;;;;10454741;28;20402;-59
2021/03/30 19:03:18;;;;;;;8.30;2.60;;;18.70;60.30;;;;;;10455532;28;20032;-58
2021/03/30 19:08:19;;;;;;;5.55;3.17;;;18.70;60.40;;;;;;10454835;28;20040;-58
2021/03/30 19:13:20;;;;;;;7.55;3.72;;;18.70;60.50;;;;;;10456043;28;20114;-59
2021/03/30 19:18:21;;;;;;;6.53;3.38;;;18.70;60.50;;;;;;10457709;28;20052;-60
2021/03/30 19:23:22;;;;;;;5.45;2.72;;;18.70;60.60;;;;;;10453513;28;20120;-60
2021/03/30 19:28:30;;;;;;;8.77;3.00;;;18.80;60.60;;;;;;10456269;28;20040;-60
2021/03/30 19:33:39;;;;;;;5.50;3.13;;;18.80;60.70;;;;;;10463948;28;20017;-60
2021/03/30 19:38:40;;;;;;;6.18;3.20;;;18.70;60.60;;;;;;10483330;28;20055;-59
2021/03/30 19:43:41;;;;;;;3.97;2.85;;;18.70;59.50;;;;;;10453847;28;20071;-60
2021/03/30 19:48:44;;;;;;;5.65;2.65;;;18.70;59.40;;;;;;10482581;28;20113;-60
2021/03/30 19:53:45;;;;;;;6.43;3.38;;;18.70;59.40;;;;;;10472456;28;20025;-59
2021/03/30 19:58:46;;;;;;;7.03;3.22;;;18.70;59.40;;;;;;10459764;28;20029;-59
2021/03/30 20:03:46;;;;;;;7.53;2.65;;;18.70;59.40;;;;;;10455149;28;20037;-59
2021/03/30 20:08:47;;;;;;;6.82;3.08;;;18.70;59.40;;;;;;10459114;28;20110;-60
2021/03/30 20:13:48;;;;;;;4.43;2.45;;;18.70;59.30;;;;;;10489017;28;20029;-59
2021/03/30 20:18:48;;;;;;;5.45;2.95;;;18.70;59.30;;;;;;10471047;28;20116;-60
2021/03/30 20:23:49;;;;;;;4.47;2.38;;;18.70;59.20;;;;;;10484611;28;20047;-59
2021/03/30 20:28:50;;;;;;;3.47;2.20;;;18.60;59.10;;;;;;10483257;28;20396;-59
2021/03/30 20:33:51;;;;;;;6.25;2.90;;;18.60;59.00;;;;;;10458637;28;20028;-59
2021/03/30 20:38:52;;;;;;;4.38;2.45;;;18.60;59.00;;;;;;10487718;28;20028;-59
2021/03/30 20:43:52;;;;;;;6.18;2.38;;;18.60;59.00;;;;;;10462167;28;20089;-59
2021/03/30 20:48:53;;;;;;;4.65;2.25;;;18.60;59.00;;;;;;10482390;28;20420;-59
2021/03/30 20:53:54;;;;;;;3.85;2.22;;;18.60;59.00;;;;;;10467327;28;20057;-60
2021/03/30 20:58:55;;;;;;;6.15;2.78;;;18.60;59.10;;;;;;10454868;28;20078;-59
2021/03/30 21:03:55;;;;;;;3.28;2.45;;;18.50;59.00;;;;;;10454732;28;20032;-59
2021/03/30 21:08:56;;;;;;;4.72;2.65;;;18.50;59.00;;;;;;10467114;28;20060;-59
2021/03/30 21:13:58;;;;;;;6.25;2.75;;;18.50;59.10;;;;;;10463190;28;20107;-59
2021/03/30 21:18:59;;;;;;;5.72;2.30;;;18.50;59.00;;;;;;10490972;28;20135;-59
2021/03/30 21:23:59;;;;;;;3.05;2.17;;;18.50;59.00;;;;;;10482440;28;20119;-60
2021/03/30 21:29:00;;;;;;;4.20;2.38;;;18.50;58.90;;;;;;10462254;28;20037;-59
2021/03/30 21:34:01;;;;;;;5.80;2.50;;;18.50;59.00;;;;;;10461629;28;20032;-60
2021/03/30 21:39:03;;;;;;;3.15;2.00;;;18.40;58.90;;;;;;10461440;28;20497;-59
2021/03/30 21:44:05;;;;;;;4.55;2.40;;;18.40;58.80;;;;;;10461551;28;20051;-59
2021/03/30 21:49:05;;;;;;;4.07;2.63;;;18.40;58.70;;;;;;10461067;28;20037;-59
2021/03/30 21:54:06;;;;;;;4.63;2.20;;;18.40;58.80;;;;;;10484768;28;20111;-59
2021/03/30 21:59:07;;;;;;;3.83;2.45;;;18.40;58.70;;;;;;10490467;28;20529;-59
2021/03/30 22:04:08;;;;;;;4.25;2.20;;;18.40;58.70;;;;;;10473535;28;20039;-59
2021/03/30 22:09:09;;;;;;;3.63;2.35;;;18.40;58.70;;;;;;10474829;28;20112;-59
2021/03/30 22:14:12;;;;;;;4.95;2.80;;;18.40;58.70;;;;;;10501528;28;20119;-59
2021/03/30 22:19:17;;;;;;;5.72;2.72;;;18.40;58.60;;;;;;10489189;28;20056;-59
2021/03/30 22:24:18;;;;;;;3.25;2.10;;;18.40;58.60;;;;;;10483300;28;20106;-59
2021/03/30 22:29:20;;;;;;;4.28;2.50;;;18.30;58.50;;;;;;10488653;28;20036;-59
2021/03/30 22:34:22;;;;;;;5.43;2.65;;;18.30;59.10;;;;;;10459410;28;20116;-59
2021/03/30 22:39:22;;;;;;;4.90;2.60;;;18.30;58.50;;;;;;10461371;28;20527;-59
2021/03/30 22:44:23;;;;;;;4.18;2.47;;;18.30;58.40;;;;;;10459166;28;20041;-60
2021/03/30 22:49:24;;;;;;;3.35;2.25;;;18.30;58.40;;;;;;10468470;28;20060;-59
2021/03/30 22:54:24;;;;;;;5.28;2.50;;;18.30;58.40;;;;;;10488122;28;20071;-59
2021/03/30 22:59:25;;;;;;;4.00;2.40;;;18.30;58.30;;;;;;10458265;28;20111;-59
2021/03/30 23:04:26;;;;;;;3.20;2.40;;;18.30;58.30;;;;;;10458266;28;20166;-59
2021/03/30 23:09:26;;;;;;;4.50;2.55;;;18.30;58.30;;;;;;10464269;28;20484;-59
2021/03/30 23:14:27;;;;;;;4.22;2.60;;;18.30;58.20;;;;;;10499030;28;20501;-59
2021/03/30 23:19:28;;;;;;;4.30;2.20;;;18.30;58.20;;;;;;10477846;28;20437;-59
2021/03/30 23:24:29;;;;;;;4.30;2.50;;;18.20;58.20;;;;;;10457236;28;20053;-59
2021/03/30 23:29:29;;;;;;;3.50;2.67;;;18.30;58.20;;;;;;10464626;28;20040;-59
2021/03/30 23:34:30;;;;;;;3.85;2.35;;;18.20;58.20;;;;;;10485922;28;20485;-59
2021/03/30 23:39:31;;;;;;;4.28;2.55;;;18.20;58.20;;;;;;10462022;28;20362;-59
2021/03/30 23:44:32;;;;;;;3.60;2.78;;;18.20;58.10;;;;;;10480122;28;20487;-59
2021/03/30 23:49:32;;;;;;;3.17;2.25;;;18.20;58.10;;;;;;10469898;28;20094;-59
2021/03/30 23:54:34;;;;;;;4.55;2.90;;;18.20;58.10;;;;;;10496191;28;20073;-59
2021/03/30 23:59:35;;;;;;;4.00;2.65;;;18.20;58.00;;;;;;10483964;28;20033;-59
